sensor_id;sensor_type;location;lat;lon;timestamp;P1;durP1;ratioP1;P2;durP2;ratioP2
73434;SDS011;61648;52.094;5.054;2022-09-27T04:44:48;12.05;;;2.83;;
73434;SDS011;61648;52.094;5.054;2022-09-27T04:47:14;14.43;;;2.70;;
73434;SDS011;61648;52.094;5.054;2022-09-27T04:49:41;14.23;;;2.65;;
73434;SDS011;61648;52.094;5.054;2022-09-27T04:52:07;9.90;;;2.13;;
73434;SDS011;61648;52.094;5.054;2022-09-27T04:54:33;9.88;;;2.30;;
73434;SDS011;61648;52.094;5.054;2022-09-27T04:56:59;9.32;;;2.58;;
73434;SDS011;61648;52.094;5.054;2022-09-27T04:59:25;11.57;;;2.38;;
73434;SDS011;61648;52.094;5.054;2022-09-27T05:01:51;12.20;;;2.20;;
73434;SDS011;61648;52.094;5.054;2022-09-27T05:04:17;8.15;;;2.30;;
73434;SDS011;61648;52.094;5.054;2022-09-27T05:06:43;10.27;;;2.00;;
73434;SDS011;61648;52.094;5.054;2022-09-27T05:09:09;10.85;;;2.33;;
73434;SDS011;61648;52.094;5.054;2022-09-27T05:11:35;10.63;;;2.28;;
73434;SDS011;61648;52.094;5.054;2022-09-27T05:14:02;8.02;;;2.05;;
73434;SDS011;61648;52.094;5.054;2022-09-27T05:16:28;7.35;;;1.95;;
73434;SDS011;61648;52.094;5.054;2022-09-27T05:18:54;9.90;;;2.13;;
73434;SDS011;61648;52.094;5.054;2022-09-27T05:21:21;10.35;;;2.58;;
73434;SDS011;61648;52.094;5.054;2022-09-27T05:23:47;9.85;;;2.20;;
73434;SDS011;61648;52.094;5.054;2022-09-27T05:26:13;7.22;;;1.80;;
73434;SDS011;61648;52.094;5.054;2022-09-27T05:28:39;10.90;;;2.15;;
73434;SDS011;61648;52.094;5.054;2022-09-27T05:31:08;9.05;;;2.40;;
73434;SDS011;61648;52.094;5.054;2022-09-27T05:33:37;10.27;;;2.30;;
73434;SDS011;61648;52.094;5.054;2022-09-27T05:36:03;9.32;;;2.20;;
73434;SDS011;61648;52.094;5.054;2022-09-27T05:38:29;8.68;;;2.13;;
73434;SDS011;61648;52.094;5.054;2022-09-27T05:40:55;7.85;;;2.00;;
73434;SDS011;61648;52.094;5.054;2022-09-27T05:43:21;9.90;;;1.90;;
73434;SDS011;61648;52.094;5.054;2022-09-27T05:45:47;6.53;;;1.80;;
73434;SDS011;61648;52.094;5.054;2022-09-27T05:48:15;7.82;;;1.70;;
73434;SDS011;61648;52.094;5.054;2022-09-27T05:50:41;12.95;;;2.20;;
73434;SDS011;61648;52.094;5.054;2022-09-27T05:53:08;9.68;;;1.83;;
73434;SDS011;61648;52.094;5.054;2022-09-27T05:55:34;7.00;;;1.67;;
73434;SDS011;61648;52.094;5.054;2022-09-27T05:58:06;10.43;;;1.88;;
73434;SDS011;61648;52.094;5.054;2022-09-27T06:00:33;6.15;;;1.60;;
73434;SDS011;61648;52.094;5.054;2022-09-27T06:03:01;10.57;;;2.38;;
73434;SDS011;61648;52.094;5.054;2022-09-27T06:05:29;9.68;;;2.10;;
73434;SDS011;61648;52.094;5.054;2022-09-27T06:07:59;8.73;;;1.73;;
73434;SDS011;61648;52.094;5.054;2022-09-27T06:10:26;7.18;;;1.52;;
73434;SDS011;61648;52.094;5.054;2022-09-27T06:12:52;7.55;;;1.73;;
73434;SDS011;61648;52.094;5.054;2022-09-27T06:15:19;9.43;;;1.50;;
73434;SDS011;61648;52.094;5.054;2022-09-27T06:17:45;7.53;;;1.58;;
73434;SDS011;61648;52.094;5.054;2022-09-27T06:20:11;9.50;;;1.55;;
73434;SDS011;61648;52.094;5.054;2022-09-27T06:22:38;6.10;;;1.13;;
73434;SDS011;61648;52.094;5.054;2022-09-27T06:25:05;6.57;;;1.85;;
73434;SDS011;61648;52.094;5.054;2022-09-27T06:27:32;7.35;;;1.77;;
73434;SDS011;61648;52.094;5.054;2022-09-27T06:29:58;7.82;;;1.70;;
73434;SDS011;61648;52.094;5.054;2022-09-27T06:32:25;6.20;;;1.50;;
73434;SDS011;61648;52.094;5.054;2022-09-27T06:34:51;5.30;;;1.25;;
73434;SDS011;61648;52.094;5.054;2022-09-27T06:37:17;10.20;;;1.98;;
73434;SDS011;61648;52.094;5.054;2022-09-27T06:39:43;5.93;;;1.33;;
73434;SDS011;61648;52.094;5.054;2022-09-27T06:42:09;6.45;;;1.38;;
73434;SDS011;61648;52.094;5.054;2022-09-27T06:44:35;6.35;;;1.55;;
73434;SDS011;61648;52.094;5.054;2022-09-27T06:47:01;5.97;;;1.38;;
73434;SDS011;61648;52.094;5.054;2022-09-27T06:49:27;7.72;;;1.45;;
73434;SDS011;61648;52.094;5.054;2022-09-27T06:51:53;3.10;;;1.08;;
73434;SDS011;61648;52.094;5.054;2022-09-27T06:54:19;8.40;;;1.38;;
73434;SDS011;61648;52.094;5.054;2022-09-27T06:56:48;5.55;;;1.38;;
73434;SDS011;61648;52.094;5.054;2022-09-27T06:59:14;6.65;;;1.25;;
73434;SDS011;61648;52.094;5.054;2022-09-27T07:01:59;4.38;;;1.10;;
73434;SDS011;61648;52.094;5.054;2022-09-27T07:04:25;5.88;;;1.30;;
73434;SDS011;61648;52.094;5.054;2022-09-27T07:06:51;7.22;;;1.20;;
73434;SDS011;61648;52.094;5.054;2022-09-27T07:09:17;5.25;;;1.30;;
73434;SDS011;61648;52.094;5.054;2022-09-27T07:11:43;2.70;;;1.00;;
73434;SDS011;61648;52.094;5.054;2022-09-27T07:14:10;5.90;;;1.10;;
73434;SDS011;61648;52.094;5.054;2022-09-27T07:16:36;7.07;;;1.20;;
73434;SDS011;61648;52.094;5.054;2022-09-27T07:19:02;6.63;;;1.33;;
73434;SDS011;61648;52.094;5.054;2022-09-27T07:21:31;5.70;;;1.55;;
73434;SDS011;61648;52.094;5.054;2022-09-27T07:23:57;3.53;;;1.13;;
73434;SDS011;61648;52.094;5.054;2022-09-27T07:26:23;6.18;;;1.10;;
73434;SDS011;61648;52.094;5.054;2022-09-27T07:28:49;3.90;;;1.00;;
73434;SDS011;61648;52.094;5.054;2022-09-27T07:31:17;8.02;;;1.25;;
73434;SDS011;61648;52.094;5.054;2022-09-27T07:33:43;7.30;;;1.50;;
73434;SDS011;61648;52.094;5.054;2022-09-27T07:36:09;3.72;;;1.00;;
73434;SDS011;61648;52.094;5.054;2022-09-27T07:38:35;3.05;;;0.93;;
73434;SDS011;61648;52.094;5.054;2022-09-27T07:41:06;3.30;;;1.10;;
73434;SDS011;61648;52.094;5.054;2022-09-27T07:43:32;4.20;;;1.10;;
73434;SDS011;61648;52.094;5.054;2022-09-27T07:45:58;4.80;;;1.25;;
73434;SDS011;61648;52.094;5.054;2022-09-27T07:48:24;4.90;;;1.08;;
73434;SDS011;61648;52.094;5.054;2022-09-27T07:50:51;5.90;;;1.40;;
73434;SDS011;61648;52.094;5.054;2022-09-27T07:53:17;3.92;;;1.40;;
73434;SDS011;61648;52.094;5.054;2022-09-27T07:55:43;4.50;;;1.10;;
73434;SDS011;61648;52.094;5.054;2022-09-27T07:58:10;4.60;;;0.90;;
73434;SDS011;61648;52.094;5.054;2022-09-27T08:00:36;3.70;;;0.82;;
73434;SDS011;61648;52.094;5.054;2022-09-27T08:03:04;5.40;;;1.13;;
73434;SDS011;61648;52.094;5.054;2022-09-27T08:05:30;4.75;;;0.88;;
73434;SDS011;61648;52.094;5.054;2022-09-27T08:07:56;3.58;;;0.73;;
73434;SDS011;61648;52.094;5.054;2022-09-27T08:10:22;5.32;;;0.95;;
73434;SDS011;61648;52.094;5.054;2022-09-27T08:12:54;5.00;;;0.98;;
73434;SDS011;61648;52.094;5.054;2022-09-27T08:15:20;5.65;;;1.20;;
73434;SDS011;61648;52.094;5.054;2022-09-27T08:17:46;5.93;;;0.80;;
73434;SDS011;61648;52.094;5.054;2022-09-27T08:20:12;4.63;;;0.90;;
73434;SDS011;61648;52.094;5.054;2022-09-27T08:22:39;3.30;;;0.88;;
73434;SDS011;61648;52.094;5.054;2022-09-27T08:25:05;5.25;;;1.10;;
73434;SDS011;61648;52.094;5.054;2022-09-27T08:27:31;6.88;;;1.35;;
73434;SDS011;61648;52.094;5.054;2022-09-27T08:29:57;8.32;;;1.02;;
73434;SDS011;61648;52.094;5.054;2022-09-27T08:32:24;3.38;;;0.88;;
73434;SDS011;61648;52.094;5.054;2022-09-27T08:34:51;5.15;;;1.00;;
73434;SDS011;61648;52.094;5.054;2022-09-27T08:37:17;4.53;;;0.82;;
73434;SDS011;61648;52.094;5.054;2022-09-27T08:39:44;6.20;;;0.90;;
73434;SDS011;61648;52.094;5.054;2022-09-27T08:42:24;4.60;;;1.25;;
73434;SDS011;61648;52.094;5.054;2022-09-27T08:52:50;6.80;;;1.08;;
73434;SDS011;61648;52.094;5.054;2022-09-27T08:58:15;5.18;;;1.13;;
73434;SDS011;61648;52.094;5.054;2022-09-27T09:00:44;1.27;;;0.52;;
73434;SDS011;61648;52.094;5.054;2022-09-27T09:03:15;3.50;;;0.75;;
73434;SDS011;61648;52.094;5.054;2022-09-27T09:05:42;5.53;;;1.10;;
73434;SDS011;61648;52.094;5.054;2022-09-27T09:08:29;2.40;;;0.63;;
73434;SDS011;61648;52.094;5.054;2022-09-27T09:21:33;3.20;;;0.75;;
73434;SDS011;61648;52.094;5.054;2022-09-27T09:32:08;3.92;;;0.80;;
73434;SDS011;61648;52.094;5.054;2022-09-27T09:34:38;3.13;;;0.98;;
73434;SDS011;61648;52.094;5.054;2022-09-27T09:37:16;3.53;;;1.02;;
73434;SDS011;61648;52.094;5.054;2022-09-27T09:39:58;2.22;;;0.70;;
73434;SDS011;61648;52.094;5.054;2022-09-27T09:42:42;5.85;;;0.80;;
73434;SDS011;61648;52.094;5.054;2022-09-27T09:45:14;2.58;;;0.77;;
73434;SDS011;61648;52.094;5.054;2022-09-27T09:50:28;3.85;;;0.70;;
73434;SDS011;61648;52.094;5.054;2022-09-27T09:52:56;3.83;;;0.75;;
73434;SDS011;61648;52.094;5.054;2022-09-27T09:55:33;2.40;;;0.60;;
73434;SDS011;61648;52.094;5.054;2022-09-27T10:00:36;3.03;;;0.60;;
73434;SDS011;61648;52.094;5.054;2022-09-27T10:03:03;1.40;;;0.50;;
73434;SDS011;61648;52.094;5.054;2022-09-27T10:05:29;2.67;;;0.75;;
73434;SDS011;61648;52.094;5.054;2022-09-27T10:07:56;3.67;;;0.80;;
73434;SDS011;61648;52.094;5.054;2022-09-27T10:10:23;1.80;;;0.60;;
73434;SDS011;61648;52.094;5.054;2022-09-27T10:12:50;2.88;;;0.85;;
73434;SDS011;61648;52.094;5.054;2022-09-27T10:15:20;4.43;;;0.80;;
73434;SDS011;61648;52.094;5.054;2022-09-27T10:17:47;2.97;;;0.70;;
73434;SDS011;61648;52.094;5.054;2022-09-27T10:23:20;5.13;;;1.00;;
73434;SDS011;61648;52.094;5.054;2022-09-27T10:25:49;3.03;;;0.70;;
73434;SDS011;61648;52.094;5.054;2022-09-27T10:28:30;1.67;;;0.70;;
73434;SDS011;61648;52.094;5.054;2022-09-27T10:30:57;3.95;;;0.90;;
73434;SDS011;61648;52.094;5.054;2022-09-27T10:33:24;1.85;;;0.52;;
73434;SDS011;61648;52.094;5.054;2022-09-27T10:35:50;3.88;;;0.85;;
73434;SDS011;61648;52.094;5.054;2022-09-27T10:38:26;3.25;;;0.65;;
73434;SDS011;61648;52.094;5.054;2022-09-27T10:40:53;3.85;;;0.85;;
73434;SDS011;61648;52.094;5.054;2022-09-27T10:43:32;2.00;;;0.60;;
73434;SDS011;61648;52.094;5.054;2022-09-27T10:51:00;2.67;;;0.73;;
73434;SDS011;61648;52.094;5.054;2022-09-27T10:53:27;3.28;;;0.80;;
73434;SDS011;61648;52.094;5.054;2022-09-27T10:55:54;1.88;;;0.68;;
73434;SDS011;61648;52.094;5.054;2022-09-27T11:00:53;2.60;;;0.43;;
73434;SDS011;61648;52.094;5.054;2022-09-27T11:03:19;3.55;;;0.50;;
73434;SDS011;61648;52.094;5.054;2022-09-27T11:05:45;2.95;;;0.50;;
73434;SDS011;61648;52.094;5.054;2022-09-27T11:10:43;2.22;;;0.55;;
73434;SDS011;61648;52.094;5.054;2022-09-27T11:13:14;2.72;;;0.73;;
73434;SDS011;61648;52.094;5.054;2022-09-27T11:15:48;2.58;;;0.57;;
73434;SDS011;61648;52.094;5.054;2022-09-27T11:18:20;1.38;;;0.50;;
73434;SDS011;61648;52.094;5.054;2022-09-27T11:20:50;3.17;;;0.50;;
73434;SDS011;61648;52.094;5.054;2022-09-27T11:31:09;2.92;;;0.68;;
73434;SDS011;61648;52.094;5.054;2022-09-27T11:33:44;2.15;;;0.60;;
73434;SDS011;61648;52.094;5.054;2022-09-27T11:41:49;2.08;;;0.60;;
73434;SDS011;61648;52.094;5.054;2022-09-27T11:46:58;1.23;;;0.40;;
73434;SDS011;61648;52.094;5.054;2022-09-27T11:52:21;1.60;;;0.73;;
73434;SDS011;61648;52.094;5.054;2022-09-27T12:07:43;4.90;;;1.00;;
73434;SDS011;61648;52.094;5.054;2022-09-27T12:10:13;2.78;;;0.80;;
73434;SDS011;61648;52.094;5.054;2022-09-27T12:12:40;3.25;;;1.02;;
73434;SDS011;61648;52.094;5.054;2022-09-27T12:15:16;2.03;;;0.60;;
73434;SDS011;61648;52.094;5.054;2022-09-27T12:17:44;4.25;;;1.05;;
73434;SDS011;61648;52.094;5.054;2022-09-27T12:20:27;1.50;;;0.70;;
73434;SDS011;61648;52.094;5.054;2022-09-27T12:23:10;2.78;;;0.82;;
73434;SDS011;61648;52.094;5.054;2022-09-27T12:25:40;1.45;;;0.60;;
73434;SDS011;61648;52.094;5.054;2022-09-27T12:28:20;1.63;;;0.57;;
73434;SDS011;61648;52.094;5.054;2022-09-27T12:30:52;1.10;;;0.50;;
73434;SDS011;61648;52.094;5.054;2022-09-27T12:33:37;1.85;;;0.50;;
73434;SDS011;61648;52.094;5.054;2022-09-27T12:36:05;2.08;;;0.40;;
73434;SDS011;61648;52.094;5.054;2022-09-27T12:41:00;2.75;;;0.70;;
73434;SDS011;61648;52.094;5.054;2022-09-27T12:43:27;3.13;;;0.80;;
73434;SDS011;61648;52.094;5.054;2022-09-27T12:53:28;2.67;;;0.80;;
73434;SDS011;61648;52.094;5.054;2022-09-27T12:58:33;3.00;;;0.70;;
73434;SDS011;61648;52.094;5.054;2022-09-27T13:01:16;3.65;;;0.80;;
73434;SDS011;61648;52.094;5.054;2022-09-27T13:06:38;4.25;;;0.80;;
73434;SDS011;61648;52.094;5.054;2022-09-27T13:14:01;1.27;;;0.60;;
73434;SDS011;61648;52.094;5.054;2022-09-27T13:16:28;1.05;;;0.60;;
73434;SDS011;61648;52.094;5.054;2022-09-27T13:18:57;2.47;;;0.77;;
73434;SDS011;61648;52.094;5.054;2022-09-27T13:24:29;3.65;;;0.95;;
73434;SDS011;61648;52.094;5.054;2022-09-27T13:26:55;0.70;;;0.52;;
73434;SDS011;61648;52.094;5.054;2022-09-27T13:29:23;1.80;;;0.60;;
73434;SDS011;61648;52.094;5.054;2022-09-27T13:39:48;3.10;;;0.80;;
73434;SDS011;61648;52.094;5.054;2022-09-27T13:42:36;3.75;;;0.85;;
73434;SDS011;61648;52.094;5.054;2022-09-27T13:45:09;3.15;;;0.75;;
73434;SDS011;61648;52.094;5.054;2022-09-27T13:47:43;2.83;;;0.80;;
73434;SDS011;61648;52.094;5.054;2022-09-27T13:50:16;4.63;;;0.85;;
73434;SDS011;61648;52.094;5.054;2022-09-27T13:52:45;2.03;;;0.75;;
73434;SDS011;61648;52.094;5.054;2022-09-27T13:55:37;1.52;;;0.70;;
73434;SDS011;61648;52.094;5.054;2022-09-27T14:00:46;0.85;;;0.50;;
73434;SDS011;61648;52.094;5.054;2022-09-27T14:03:14;2.33;;;0.73;;
73434;SDS011;61648;52.094;5.054;2022-09-27T14:05:54;1.05;;;0.50;;
73434;SDS011;61648;52.094;5.054;2022-09-27T14:08:29;2.50;;;0.60;;
73434;SDS011;61648;52.094;5.054;2022-09-27T14:10:56;1.75;;;0.50;;
73434;SDS011;61648;52.094;5.054;2022-09-27T14:13:23;3.13;;;0.85;;
73434;SDS011;61648;52.094;5.054;2022-09-27T14:15:50;0.80;;;0.47;;
73434;SDS011;61648;52.094;5.054;2022-09-27T14:18:16;3.17;;;0.70;;
73434;SDS011;61648;52.094;5.054;2022-09-27T14:20:44;3.28;;;0.60;;
73434;SDS011;61648;52.094;5.054;2022-09-27T14:23:15;3.78;;;0.80;;
73434;SDS011;61648;52.094;5.054;2022-09-27T14:25:49;2.40;;;0.88;;
73434;SDS011;61648;52.094;5.054;2022-09-27T14:28:28;1.08;;;0.40;;
73434;SDS011;61648;52.094;5.054;2022-09-27T14:33:50;2.58;;;0.35;;
73434;SDS011;61648;52.094;5.054;2022-09-27T14:36:30;2.42;;;0.75;;
73434;SDS011;61648;52.094;5.054;2022-09-27T14:39:20;1.30;;;0.40;;
73434;SDS011;61648;52.094;5.054;2022-09-27T14:41:46;1.98;;;0.60;;
73434;SDS011;61648;52.094;5.054;2022-09-27T14:44:19;1.13;;;0.43;;
73434;SDS011;61648;52.094;5.054;2022-09-27T14:46:46;2.53;;;0.60;;
73434;SDS011;61648;52.094;5.054;2022-09-27T14:49:19;0.82;;;0.43;;
73434;SDS011;61648;52.094;5.054;2022-09-27T14:51:52;3.45;;;0.60;;
73434;SDS011;61648;52.094;5.054;2022-09-27T14:54:26;1.88;;;0.50;;
73434;SDS011;61648;52.094;5.054;2022-09-27T14:56:54;1.55;;;0.40;;
73434;SDS011;61648;52.094;5.054;2022-09-27T14:59:23;1.23;;;0.50;;
73434;SDS011;61648;52.094;5.054;2022-09-27T15:01:54;2.08;;;0.52;;
73434;SDS011;61648;52.094;5.054;2022-09-27T15:04:20;0.82;;;0.45;;
73434;SDS011;61648;52.094;5.054;2022-09-27T15:06:47;3.20;;;0.65;;
73434;SDS011;61648;52.094;5.054;2022-09-27T15:09:14;1.90;;;0.73;;
73434;SDS011;61648;52.094;5.054;2022-09-27T15:11:41;4.10;;;0.70;;
73434;SDS011;61648;52.094;5.054;2022-09-27T15:14:12;1.30;;;0.63;;
73434;SDS011;61648;52.094;5.054;2022-09-27T15:16:39;2.60;;;0.80;;
73434;SDS011;61648;52.094;5.054;2022-09-27T15:21:42;2.47;;;0.50;;
73434;SDS011;61648;52.094;5.054;2022-09-27T15:26:53;3.15;;;0.80;;
73434;SDS011;61648;52.094;5.054;2022-09-27T15:32:04;2.95;;;0.60;;
73434;SDS011;61648;52.094;5.054;2022-09-27T15:34:31;2.47;;;0.98;;
73434;SDS011;61648;52.094;5.054;2022-09-27T15:36:59;2.35;;;0.70;;
73434;SDS011;61648;52.094;5.054;2022-09-27T15:39:39;2.53;;;0.75;;
73434;SDS011;61648;52.094;5.054;2022-09-27T15:44:45;2.22;;;0.70;;
73434;SDS011;61648;52.094;5.054;2022-09-27T15:49:57;2.50;;;0.70;;
73434;SDS011;61648;52.094;5.054;2022-09-27T15:55:10;3.45;;;0.90;;
73434;SDS011;61648;52.094;5.054;2022-09-27T15:57:37;2.67;;;0.82;;
73434;SDS011;61648;52.094;5.054;2022-09-27T16:00:03;2.45;;;0.75;;
73434;SDS011;61648;52.094;5.054;2022-09-27T16:02:29;4.97;;;0.70;;
73434;SDS011;61648;52.094;5.054;2022-09-27T16:04:55;2.53;;;0.60;;
73434;SDS011;61648;52.094;5.054;2022-09-27T16:07:21;3.30;;;0.70;;
73434;SDS011;61648;52.094;5.054;2022-09-27T16:09:47;2.75;;;0.63;;
73434;SDS011;61648;52.094;5.054;2022-09-27T16:12:15;3.20;;;0.80;;
73434;SDS011;61648;52.094;5.054;2022-09-27T16:14:41;4.50;;;1.00;;
73434;SDS011;61648;52.094;5.054;2022-09-27T16:17:08;4.22;;;0.90;;
73434;SDS011;61648;52.094;5.054;2022-09-27T16:19:34;3.78;;;0.75;;
73434;SDS011;61648;52.094;5.054;2022-09-27T16:22:00;3.53;;;0.85;;
73434;SDS011;61648;52.094;5.054;2022-09-27T16:24:27;2.28;;;0.70;;
73434;SDS011;61648;52.094;5.054;2022-09-27T16:26:53;3.08;;;0.65;;
73434;SDS011;61648;52.094;5.054;2022-09-27T16:29:19;2.88;;;0.70;;
73434;SDS011;61648;52.094;5.054;2022-09-27T16:31:45;3.33;;;0.93;;
73434;SDS011;61648;52.094;5.054;2022-09-27T16:34:11;3.35;;;0.90;;
73434;SDS011;61648;52.094;5.054;2022-09-27T16:36:38;4.00;;;1.02;;
73434;SDS011;61648;52.094;5.054;2022-09-27T16:39:11;2.08;;;1.00;;
73434;SDS011;61648;52.094;5.054;2022-09-27T16:41:37;2.13;;;1.00;;
73434;SDS011;61648;52.094;5.054;2022-09-27T16:44:09;4.85;;;1.40;;
73434;SDS011;61648;52.094;5.054;2022-09-27T16:46:39;2.67;;;0.82;;
73434;SDS011;61648;52.094;5.054;2022-09-27T16:49:05;5.40;;;1.20;;
73434;SDS011;61648;52.094;5.054;2022-09-27T16:51:51;7.18;;;1.27;;
73434;SDS011;61648;52.094;5.054;2022-09-27T16:54:23;29.73;;;6.15;;
73434;SDS011;61648;52.094;5.054;2022-09-27T16:56:49;97.70;;;28.80;;
73434;SDS011;61648;52.094;5.054;2022-09-27T16:59:15;39.20;;;11.13;;
73434;SDS011;61648;52.094;5.054;2022-09-27T17:01:41;57.90;;;18.23;;
73434;SDS011;61648;52.094;5.054;2022-09-27T17:04:07;72.70;;;20.25;;
73434;SDS011;61648;52.094;5.054;2022-09-27T17:06:33;65.78;;;18.35;;
73434;SDS011;61648;52.094;5.054;2022-09-27T17:09:02;58.50;;;18.27;;
73434;SDS011;61648;52.094;5.054;2022-09-27T17:11:29;60.45;;;19.90;;
73434;SDS011;61648;52.094;5.054;2022-09-27T17:13:55;56.85;;;20.25;;
73434;SDS011;61648;52.094;5.054;2022-09-27T17:16:21;50.70;;;17.38;;
73434;SDS011;61648;52.094;5.054;2022-09-27T17:18:47;48.85;;;16.05;;
73434;SDS011;61648;52.094;5.054;2022-09-27T17:21:13;48.10;;;17.50;;
73434;SDS011;61648;52.094;5.054;2022-09-27T17:23:39;58.83;;;19.08;;
73434;SDS011;61648;52.094;5.054;2022-09-27T17:26:07;49.78;;;17.55;;
73434;SDS011;61648;52.094;5.054;2022-09-27T17:28:34;58.10;;;17.67;;
73434;SDS011;61648;52.094;5.054;2022-09-27T17:31:10;50.58;;;17.42;;
73434;SDS011;61648;52.094;5.054;2022-09-27T17:33:39;49.88;;;17.13;;
73434;SDS011;61648;52.094;5.054;2022-09-27T17:36:10;46.28;;;14.52;;
73434;SDS011;61648;52.094;5.054;2022-09-27T17:38:36;43.42;;;15.80;;
73434;SDS011;61648;52.094;5.054;2022-09-27T17:41:03;47.20;;;14.77;;
73434;SDS011;61648;52.094;5.054;2022-09-27T17:43:29;46.28;;;14.15;;
73434;SDS011;61648;52.094;5.054;2022-09-27T17:46:07;41.45;;;14.60;;
73434;SDS011;61648;52.094;5.054;2022-09-27T17:48:34;44.58;;;13.38;;
73434;SDS011;61648;52.094;5.054;2022-09-27T17:51:19;36.60;;;12.20;;
73434;SDS011;61648;52.094;5.054;2022-09-27T17:53:45;44.30;;;12.75;;
73434;SDS011;61648;52.094;5.054;2022-09-27T17:56:12;33.95;;;11.23;;
73434;SDS011;61648;52.094;5.054;2022-09-27T17:58:38;35.55;;;12.00;;
73434;SDS011;61648;52.094;5.054;2022-09-27T18:01:05;35.33;;;10.07;;
73434;SDS011;61648;52.094;5.054;2022-09-27T18:03:34;38.33;;;10.90;;
73434;SDS011;61648;52.094;5.054;2022-09-27T18:06:06;31.77;;;10.77;;
73434;SDS011;61648;52.094;5.054;2022-09-27T18:08:33;33.55;;;10.13;;
73434;SDS011;61648;52.094;5.054;2022-09-27T18:11:06;30.27;;;9.20;;
73434;SDS011;61648;52.094;5.054;2022-09-27T18:13:32;27.83;;;9.07;;
73434;SDS011;61648;52.094;5.054;2022-09-27T18:16:04;30.17;;;8.95;;
73434;SDS011;61648;52.094;5.054;2022-09-27T18:18:31;29.30;;;8.55;;
73434;SDS011;61648;52.094;5.054;2022-09-27T18:21:01;27.85;;;8.50;;
73434;SDS011;61648;52.094;5.054;2022-09-27T18:23:29;26.10;;;7.00;;
73434;SDS011;61648;52.094;5.054;2022-09-27T18:25:55;27.58;;;7.47;;
73434;SDS011;61648;52.094;5.054;2022-09-27T18:28:25;28.95;;;7.47;;
73434;SDS011;61648;52.094;5.054;2022-09-27T18:30:52;25.40;;;7.28;;
73434;SDS011;61648;52.094;5.054;2022-09-27T18:33:18;23.77;;;7.60;;
73434;SDS011;61648;52.094;5.054;2022-09-27T18:35:44;25.95;;;6.95;;
73434;SDS011;61648;52.094;5.054;2022-09-27T18:38:10;27.45;;;7.05;;
73434;SDS011;61648;52.094;5.054;2022-09-27T18:40:35;23.85;;;7.13;;
73434;SDS011;61648;52.094;5.054;2022-09-27T18:43:01;25.15;;;6.30;;
73434;SDS011;61648;52.094;5.054;2022-09-27T18:45:27;24.88;;;6.80;;
73434;SDS011;61648;52.094;5.054;2022-09-27T18:47:53;19.48;;;6.10;;
73434;SDS011;61648;52.094;5.054;2022-09-27T18:50:19;20.30;;;6.13;;
73434;SDS011;61648;52.094;5.054;2022-09-27T18:52:45;24.60;;;6.40;;
73434;SDS011;61648;52.094;5.054;2022-09-27T18:55:11;21.33;;;6.13;;
73434;SDS011;61648;52.094;5.054;2022-09-27T18:57:37;20.20;;;5.57;;
73434;SDS011;61648;52.094;5.054;2022-09-27T19:00:03;19.08;;;5.05;;
73434;SDS011;61648;52.094;5.054;2022-09-27T19:02:29;21.42;;;5.32;;
73434;SDS011;61648;52.094;5.054;2022-09-27T19:04:57;17.63;;;4.68;;
73434;SDS011;61648;52.094;5.054;2022-09-27T19:07:23;21.80;;;5.38;;
73434;SDS011;61648;52.094;5.054;2022-09-27T19:09:49;16.15;;;4.60;;
73434;SDS011;61648;52.094;5.054;2022-09-27T19:12:16;22.70;;;5.25;;
73434;SDS011;61648;52.094;5.054;2022-09-27T19:14:42;15.55;;;4.47;;
73434;SDS011;61648;52.094;5.054;2022-09-27T19:17:07;15.70;;;4.25;;
73434;SDS011;61648;52.094;5.054;2022-09-27T19:19:33;17.30;;;4.05;;
73434;SDS011;61648;52.094;5.054;2022-09-27T19:21:59;16.67;;;4.32;;
73434;SDS011;61648;52.094;5.054;2022-09-27T19:24:26;17.65;;;3.83;;
73434;SDS011;61648;52.094;5.054;2022-09-27T19:26:52;13.65;;;3.50;;
73434;SDS011;61648;52.094;5.054;2022-09-27T19:29:20;17.02;;;3.75;;
73434;SDS011;61648;52.094;5.054;2022-09-27T19:31:46;17.00;;;4.10;;
73434;SDS011;61648;52.094;5.054;2022-09-27T19:34:12;17.65;;;3.97;;
73434;SDS011;61648;52.094;5.054;2022-09-27T19:36:38;13.93;;;3.92;;
73434;SDS011;61648;52.094;5.054;2022-09-27T19:39:04;16.17;;;4.20;;
73434;SDS011;61648;52.094;5.054;2022-09-27T19:41:30;14.10;;;3.95;;
73434;SDS011;61648;52.094;5.054;2022-09-27T19:43:56;18.38;;;4.18;;
73434;SDS011;61648;52.094;5.054;2022-09-27T19:46:23;14.50;;;3.58;;
73434;SDS011;61648;52.094;5.054;2022-09-27T19:48:49;13.40;;;3.15;;
73434;SDS011;61648;52.094;5.054;2022-09-27T19:51:25;13.65;;;3.50;;
73434;SDS011;61648;52.094;5.054;2022-09-27T19:53:51;15.35;;;3.35;;
73434;SDS011;61648;52.094;5.054;2022-09-27T19:56:18;12.77;;;3.17;;
73434;SDS011;61648;52.094;5.054;2022-09-27T19:58:44;19.50;;;3.58;;
73434;SDS011;61648;52.094;5.054;2022-09-27T20:01:11;11.65;;;2.80;;
73434;SDS011;61648;52.094;5.054;2022-09-27T20:03:38;12.70;;;3.00;;
73434;SDS011;61648;52.094;5.054;2022-09-27T20:06:05;13.63;;;3.35;;
73434;SDS011;61648;52.094;5.054;2022-09-27T20:08:31;13.98;;;2.97;;
73434;SDS011;61648;52.094;5.054;2022-09-27T20:11:01;14.20;;;3.45;;
73434;SDS011;61648;52.094;5.054;2022-09-27T20:13:28;11.90;;;3.15;;
73434;SDS011;61648;52.094;5.054;2022-09-27T20:16:01;11.75;;;2.83;;
73434;SDS011;61648;52.094;5.054;2022-09-27T20:18:28;13.32;;;3.00;;
73434;SDS011;61648;52.094;5.054;2022-09-27T20:20:57;10.82;;;2.75;;
73434;SDS011;61648;52.094;5.054;2022-09-27T20:23:23;11.45;;;2.90;;
73434;SDS011;61648;52.094;5.054;2022-09-27T20:25:49;10.85;;;2.75;;
73434;SDS011;61648;52.094;5.054;2022-09-27T20:28:15;10.57;;;2.70;;
73434;SDS011;61648;52.094;5.054;2022-09-27T20:30:41;10.65;;;2.85;;
73434;SDS011;61648;52.094;5.054;2022-09-27T20:33:07;9.63;;;2.70;;
73434;SDS011;61648;52.094;5.054;2022-09-27T20:35:52;10.52;;;2.40;;
73434;SDS011;61648;52.094;5.054;2022-09-27T20:38:18;11.52;;;2.92;;
73434;SDS011;61648;52.094;5.054;2022-09-27T20:40:53;8.23;;;2.25;;
73434;SDS011;61648;52.094;5.054;2022-09-27T20:43:20;10.15;;;2.53;;
73434;SDS011;61648;52.094;5.054;2022-09-27T20:45:46;10.52;;;2.65;;
73434;SDS011;61648;52.094;5.054;2022-09-27T20:48:12;9.68;;;2.40;;
73434;SDS011;61648;52.094;5.054;2022-09-27T20:50:38;8.88;;;2.33;;
73434;SDS011;61648;52.094;5.054;2022-09-27T20:53:04;11.63;;;2.55;;
73434;SDS011;61648;52.094;5.054;2022-09-27T20:55:31;5.00;;;1.95;;
73434;SDS011;61648;52.094;5.054;2022-09-27T20:57:57;11.68;;;2.67;;
73434;SDS011;61648;52.094;5.054;2022-09-27T21:00:23;9.80;;;2.60;;
73434;SDS011;61648;52.094;5.054;2022-09-27T21:02:49;10.60;;;2.28;;
73434;SDS011;61648;52.094;5.054;2022-09-27T21:05:15;8.15;;;2.10;;
73434;SDS011;61648;52.094;5.054;2022-09-27T21:07:42;11.73;;;2.55;;
73434;SDS011;61648;52.094;5.054;2022-09-27T21:10:08;9.43;;;2.53;;
73434;SDS011;61648;52.094;5.054;2022-09-27T21:12:34;9.63;;;2.33;;
73434;SDS011;61648;52.094;5.054;2022-09-27T21:15:00;8.75;;;2.22;;
73434;SDS011;61648;52.094;5.054;2022-09-27T21:17:26;7.35;;;1.88;;
73434;SDS011;61648;52.094;5.054;2022-09-27T21:19:52;11.93;;;2.42;;
73434;SDS011;61648;52.094;5.054;2022-09-27T21:22:18;7.03;;;1.95;;
73434;SDS011;61648;52.094;5.054;2022-09-27T21:24:44;9.40;;;2.53;;
73434;SDS011;61648;52.094;5.054;2022-09-27T21:27:10;7.13;;;1.95;;
73434;SDS011;61648;52.094;5.054;2022-09-27T21:29:36;12.13;;;2.30;;
73434;SDS011;61648;52.094;5.054;2022-09-27T21:32:02;7.38;;;2.00;;
73434;SDS011;61648;52.094;5.054;2022-09-27T21:34:28;8.10;;;2.10;;
73434;SDS011;61648;52.094;5.054;2022-09-27T21:36:54;8.68;;;1.80;;
73434;SDS011;61648;52.094;5.054;2022-09-27T21:39:20;8.45;;;1.67;;
73434;SDS011;61648;52.094;5.054;2022-09-27T21:41:46;6.70;;;1.55;;
73434;SDS011;61648;52.094;5.054;2022-09-27T21:44:12;5.35;;;1.90;;
73434;SDS011;61648;52.094;5.054;2022-09-27T21:46:39;7.10;;;1.90;;